createdAt,value
2022-10-05T00:00:23.234Z,99285.44
2022-10-05T00:02:53.276Z,99289.81
2022-10-05T00:05:26.284Z,99288.84
2022-10-05T00:07:57.536Z,99279.53
2022-10-05T00:10:25.723Z,99282.47
2022-10-05T00:12:53.377Z,99280.31
2022-10-05T00:15:23.980Z,99273.63
2022-10-05T00:17:51.663Z,99264.97
2022-10-05T00:20:22.815Z,99265.38
2022-10-05T00:22:52.831Z,99267.16
2022-10-05T00:25:22.864Z,99266.03
2022-10-05T00:27:56.166Z,99259.53
2022-10-05T00:30:27.630Z,99265.06
2022-10-05T00:32:59.497Z,99265.13
2022-10-05T00:35:29.241Z,99269.91
2022-10-05T00:37:57.355Z,99267.69
2022-10-05T00:40:37.641Z,99264.69
2022-10-05T00:43:31.206Z,99271.91
2022-10-05T00:46:07.837Z,99270.13
2022-10-05T00:48:45.606Z,99268.16
2022-10-05T00:51:23.191Z,99266.94
2022-10-05T00:54:02.871Z,99263.81
2022-10-05T00:56:45.175Z,99265.50
2022-10-05T00:59:23.010Z,99268.50
2022-10-05T01:01:58.682Z,99278.66
2022-10-05T01:04:33.178Z,99270.13
2022-10-05T01:07:06.953Z,99268.97
2022-10-05T01:09:48.518Z,99264.38
2022-10-05T01:12:24.509Z,99269.19
2022-10-05T01:15:01.373Z,99266.09
2022-10-05T01:17:39.905Z,99263.97
2022-10-05T01:20:35.314Z,99261.22
2022-10-05T01:23:41.695Z,99270.81
2022-10-05T01:26:28.944Z,99271.28
2022-10-05T01:29:03.200Z,99265.81
2022-10-05T01:31:38.548Z,99259.81
2022-10-05T01:34:14.255Z,99260.31
2022-10-05T01:36:53.321Z,99253.91
2022-10-05T01:39:30.562Z,99258.22
2022-10-05T01:42:04.698Z,99249.91
2022-10-05T01:44:41.465Z,99245.50
2022-10-05T01:47:15.981Z,99243.94
2022-10-05T01:49:47.032Z,99249.31
2022-10-05T01:52:29.446Z,99243.63
2022-10-05T01:55:10.858Z,99244.59
2022-10-05T01:57:51.442Z,99234.00
2022-10-05T02:00:21.266Z,99235.25
2022-10-05T02:02:53.457Z,99229.94
2022-10-05T02:05:25.359Z,99240.09
2022-10-05T02:07:59.649Z,99233.88
2022-10-05T02:10:30.006Z,99227.03
2022-10-05T02:13:02.423Z,99229.53
2022-10-05T02:15:41.530Z,99225.31
2022-10-05T02:18:13.565Z,99234.59
2022-10-05T02:20:43.874Z,99226.78
2022-10-05T02:23:15.456Z,99224.06
2022-10-05T02:25:46.612Z,99223.41
2022-10-05T02:28:20.238Z,99222.34
2022-10-05T02:30:54.938Z,99225.47
2022-10-05T02:33:27.901Z,99226.94
2022-10-05T02:35:57.130Z,99238.97
2022-10-05T02:38:30.594Z,99237.00
2022-10-05T02:41:08.963Z,99237.84
2022-10-05T02:43:49.656Z,99247.03
2022-10-05T02:46:31.296Z,99246.00
2022-10-05T02:49:09.562Z,99253.66
2022-10-05T02:51:46.039Z,99255.81
2022-10-05T02:54:32.069Z,99254.47
2022-10-05T02:57:05.814Z,99243.88
2022-10-05T02:59:40.056Z,99234.72
2022-10-05T03:02:19.739Z,99240.53
2022-10-05T03:05:00.005Z,99239.78
2022-10-05T03:07:33.363Z,99229.72
2022-10-05T03:10:10.330Z,99234.59
2022-10-05T03:12:48.601Z,99235.63
2022-10-05T03:15:31.554Z,99223.25
2022-10-05T03:18:12.225Z,99225.91
2022-10-05T03:20:48.436Z,99226.91
2022-10-05T03:23:25.312Z,99223.63
2022-10-05T03:26:07.448Z,99226.72
2022-10-05T03:28:43.779Z,99219.53
2022-10-05T03:31:23.004Z,99207.56
2022-10-05T03:33:58.009Z,99200.47
2022-10-05T03:36:31.415Z,99205.38
2022-10-05T03:39:10.482Z,99207.34
2022-10-05T03:41:46.431Z,99210.75
2022-10-05T03:44:35.482Z,99203.13
2022-10-05T03:47:12.561Z,99202.63
2022-10-05T03:49:56.214Z,99195.53
2022-10-05T03:52:28.551Z,99192.66
2022-10-05T03:55:02.439Z,99197.59
2022-10-05T03:57:34.613Z,99190.84
2022-10-05T04:00:07.094Z,99191.97
2022-10-05T04:02:55.460Z,99188.88
2022-10-05T04:05:28.164Z,99184.63
2022-10-05T04:08:01.300Z,99191.09
2022-10-05T04:10:34.337Z,99185.28
2022-10-05T04:13:07.821Z,99178.31
2022-10-05T04:15:42.658Z,99173.13
2022-10-05T04:18:21.213Z,99168.94
2022-10-05T04:20:53.548Z,99172.88
2022-10-05T04:23:28.974Z,99179.41
2022-10-05T04:26:03.338Z,99183.94
2022-10-05T04:28:42.185Z,99179.22
2022-10-05T04:31:14.658Z,99175.53
2022-10-05T04:33:49.243Z,99179.63
2022-10-05T04:36:27.620Z,99187.53
2022-10-05T04:39:09.466Z,99188.00
2022-10-05T04:41:49.421Z,99192.34
2022-10-05T04:44:45.912Z,99191.19
2022-10-05T04:47:30.418Z,99193.31
2022-10-05T04:50:16.940Z,99207.97
2022-10-05T04:53:10.207Z,99209.44
2022-10-05T04:55:50.665Z,99218.72
2022-10-05T04:58:30.339Z,99231.53
2022-10-05T05:01:09.251Z,99237.00
2022-10-05T05:03:54.589Z,99236.66
2022-10-05T05:06:34.907Z,99235.41
2022-10-05T05:09:20.903Z,99237.00
2022-10-05T05:12:03.773Z,99230.94
2022-10-05T05:14:47.691Z,99218.19
2022-10-05T05:17:28.443Z,99214.38
2022-10-05T05:20:06.524Z,99216.84
2022-10-05T05:22:43.417Z,99214.56
2022-10-05T05:25:23.095Z,99218.34
2022-10-05T05:27:55.839Z,99221.69
2022-10-05T05:30:31.293Z,99232.16
2022-10-05T05:33:07.489Z,99246.00
2022-10-05T05:36:05.877Z,99256.53
2022-10-05T05:38:40.899Z,99262.47
2022-10-05T05:41:14.084Z,99268.28
2022-10-05T05:44:06.847Z,99262.63
2022-10-05T05:47:02.166Z,99266.94
2022-10-05T05:49:42.722Z,99276.50
2022-10-05T05:52:18.831Z,99283.59
2022-10-05T05:54:52.863Z,99277.78
2022-10-05T05:57:27.420Z,99285.81
2022-10-05T06:00:05.505Z,99280.56
2022-10-05T06:02:47.216Z,99288.91
2022-10-05T06:05:31.269Z,99278.91
2022-10-05T06:08:13.267Z,99289.19
2022-10-05T06:10:48.821Z,99290.94
2022-10-05T06:13:23.485Z,99282.56
2022-10-05T06:15:55.854Z,99284.00
2022-10-05T06:18:24.907Z,99275.38
2022-10-05T06:21:00.934Z,99280.91
2022-10-05T06:23:35.550Z,99290.34
2022-10-05T06:26:21.187Z,99290.88
2022-10-05T06:28:53.475Z,99289.22
2022-10-05T06:31:35.833Z,99289.72
2022-10-05T06:34:19.602Z,99308.84
2022-10-05T06:36:51.996Z,99316.72
2022-10-05T06:39:46.144Z,99313.06
2022-10-05T06:42:43.574Z,99299.94
2022-10-05T06:45:31.114Z,99302.19
2022-10-05T06:48:31.703Z,99306.53
2022-10-05T06:51:30.787Z,99305.69
2022-10-05T06:54:22.204Z,99307.53
2022-10-05T06:56:56.966Z,99302.34
2022-10-05T06:59:29.441Z,99312.16
2022-10-05T07:02:07.373Z,99309.91
2022-10-05T07:04:50.883Z,99309.56
2022-10-05T07:07:26.143Z,99315.97
2022-10-05T07:10:05.698Z,99314.84
2022-10-05T07:12:57.770Z,99310.53
2022-10-05T07:15:41.400Z,99306.09
2022-10-05T07:18:29.517Z,99301.97
2022-10-05T07:21:05.251Z,99300.19
2022-10-05T07:23:46.256Z,99307.47
2022-10-05T07:26:21.701Z,99305.97
2022-10-05T07:28:56.816Z,99306.38
2022-10-05T07:31:34.088Z,99316.22
2022-10-05T07:34:10.455Z,99307.13
2022-10-05T07:37:02.982Z,99305.84
2022-10-05T07:39:59.029Z,99306.81
2022-10-05T07:42:36.370Z,99302.09
2022-10-05T07:45:15.871Z,99308.13
2022-10-05T07:47:52.573Z,99308.94
2022-10-05T07:50:27.472Z,99303.97
2022-10-05T07:52:58.861Z,99307.34
2022-10-05T07:55:31.297Z,99307.72
2022-10-05T07:58:13.029Z,99306.91
2022-10-05T08:00:50.564Z,99316.25
2022-10-05T08:03:29.607Z,99310.72
2022-10-05T08:05:59.585Z,99314.16
2022-10-05T08:08:36.752Z,99311.69
2022-10-05T08:11:14.446Z,99315.63
2022-10-05T08:13:51.334Z,99318.19
2022-10-05T08:16:19.931Z,99311.56
2022-10-05T08:18:56.645Z,99315.59
2022-10-05T08:21:34.859Z,99309.16
2022-10-05T08:24:12.048Z,99299.69
2022-10-05T08:26:51.200Z,99298.06
2022-10-05T08:29:27.091Z,99299.25
2022-10-05T08:31:59.539Z,99292.44
2022-10-05T08:34:33.706Z,99293.81
2022-10-05T08:37:05.584Z,99289.97
2022-10-05T08:39:40.074Z,99283.56
2022-10-05T08:42:38.118Z,99285.28
2022-10-05T08:45:47.313Z,99285.88
2022-10-05T08:48:43.627Z,99289.31
2022-10-05T08:51:51.308Z,99282.38
2022-10-05T08:54:38.983Z,99291.66
2022-10-05T08:57:34.764Z,99283.09
2022-10-05T09:00:12.284Z,99280.72
2022-10-05T09:03:08.658Z,99274.72
2022-10-05T09:05:58.951Z,99282.31
2022-10-05T09:08:44.624Z,99285.19
2022-10-05T09:11:20.683Z,99280.97
2022-10-05T09:14:27.620Z,99278.31
2022-10-05T09:17:11.960Z,99270.31
2022-10-05T09:19:54.196Z,99271.75
2022-10-05T09:22:39.549Z,99273.69
2022-10-05T09:25:22.080Z,99270.59
2022-10-05T09:27:57.034Z,99264.13
2022-10-05T09:30:34.714Z,99270.25
2022-10-05T09:33:47.421Z,99269.13
2022-10-05T09:36:50.200Z,99266.09
2022-10-05T09:39:47.946Z,99257.69
2022-10-05T09:42:38.894Z,99256.78
2022-10-05T09:45:53.276Z,99262.63
2022-10-05T09:48:57.363Z,99244.91
2022-10-05T09:51:58.654Z,99254.06
2022-10-05T09:55:01.222Z,99249.78
2022-10-05T09:58:07.970Z,99237.66
2022-10-05T10:01:08.932Z,99238.75
2022-10-05T10:04:12.760Z,99233.16
2022-10-05T10:07:14.030Z,99230.44
2022-10-05T10:09:54.065Z,99221.81
2022-10-05T10:12:33.109Z,99217.91
2022-10-05T10:15:29.535Z,99220.69
2022-10-05T10:18:14.860Z,99215.41
2022-10-05T10:21:04.003Z,99205.47
2022-10-05T10:24:03.573Z,99203.19
2022-10-05T10:26:58.689Z,99212.00
2022-10-05T10:30:10.201Z,99210.66
2022-10-05T10:33:22.768Z,99202.28
2022-10-05T10:35:56.465Z,99207.41
2022-10-05T10:38:30.884Z,99203.34
2022-10-05T10:41:29.855Z,99196.59
2022-10-05T10:44:25.060Z,99194.97
2022-10-05T10:47:14.427Z,99188.78
2022-10-05T10:50:05.028Z,99175.66
2022-10-05T10:52:48.996Z,99188.38
2022-10-05T10:55:31.697Z,99176.75
2022-10-05T10:58:27.387Z,99176.50
2022-10-05T11:01:05.245Z,99185.00
2022-10-05T11:04:03.698Z,99175.31
2022-10-05T11:06:48.542Z,99167.94
2022-10-05T11:09:32.508Z,99164.97
2022-10-05T11:12:55.067Z,99158.53
2022-10-05T11:15:49.488Z,99161.97
2022-10-05T11:18:21.696Z,99159.41
2022-10-05T11:21:18.453Z,99153.22
2022-10-05T11:24:38.793Z,99157.84
2022-10-05T11:30:21.233Z,99151.09
2022-10-05T11:33:30.302Z,99143.38
2022-10-05T11:36:10.803Z,99135.66
2022-10-05T11:38:57.865Z,99137.91
2022-10-05T11:42:00.910Z,99146.81
2022-10-05T11:45:06.134Z,99140.88
2022-10-05T11:47:52.636Z,99143.25
2022-10-05T11:50:24.114Z,99138.22
2022-10-05T11:52:58.010Z,99144.97
2022-10-05T11:55:30.996Z,99138.53
2022-10-05T11:58:01.555Z,99124.06
2022-10-05T12:00:34.765Z,99132.94
2022-10-05T12:03:33.284Z,99121.25
2022-10-05T12:06:22.350Z,99119.34
2022-10-05T12:09:04.702Z,99118.19
2022-10-05T12:11:57.653Z,99114.97
2022-10-05T12:14:37.188Z,99116.72
2022-10-05T12:17:13.634Z,99114.75
2022-10-05T12:19:46.834Z,99114.56
2022-10-05T12:22:19.329Z,99107.63
2022-10-05T12:25:06.230Z,99115.59
2022-10-05T12:27:39.029Z,99104.97
2022-10-05T12:30:16.010Z,99108.56
2022-10-05T12:33:01.703Z,99108.00
2022-10-05T12:35:47.780Z,99108.81
2022-10-05T12:38:24.886Z,99094.97
2022-10-05T12:40:59.823Z,99094.88
2022-10-05T12:43:35.021Z,99095.47
2022-10-05T12:46:17.634Z,99093.41
2022-10-05T12:48:58.715Z,99093.41
2022-10-05T12:51:37.842Z,99092.69
2022-10-05T12:54:17.847Z,99075.44
2022-10-05T12:56:53.628Z,99089.72
2022-10-05T12:59:34.761Z,99088.69
2022-10-05T13:02:16.379Z,99084.56
2022-10-05T13:04:52.111Z,99083.00
2022-10-05T13:07:36.353Z,99084.28
2022-10-05T13:10:16.804Z,99082.00
2022-10-05T13:13:01.093Z,99082.88
2022-10-05T13:15:32.908Z,99084.44
2022-10-05T13:18:12.018Z,99087.22
2022-10-05T13:20:45.665Z,99070.41
2022-10-05T13:23:18.907Z,99074.75
2022-10-05T13:25:55.103Z,99073.38
2022-10-05T13:28:27.909Z,99063.88
2022-10-05T13:31:03.783Z,99065.94
2022-10-05T13:33:55.447Z,99070.63
2022-10-05T13:36:33.886Z,99065.03
2022-10-05T13:39:11.670Z,99074.03
2022-10-05T13:41:51.150Z,99066.75
2022-10-05T13:44:27.493Z,99057.78
2022-10-05T13:47:02.479Z,99061.56
2022-10-05T13:49:39.516Z,99066.78
2022-10-05T13:52:20.902Z,99060.94
2022-10-05T13:54:57.590Z,99064.13
2022-10-05T13:57:44.990Z,99061.88
2022-10-05T14:00:22.700Z,99059.53
2022-10-05T14:02:56.388Z,99061.97
2022-10-05T14:05:26.797Z,99064.88
2022-10-05T14:07:56.873Z,99056.34
2022-10-05T14:10:38.510Z,99058.44
2022-10-05T14:13:21.914Z,99058.81
2022-10-05T14:16:19.136Z,99057.31
2022-10-05T14:18:59.444Z,99045.66
2022-10-05T14:21:30.164Z,99044.69
2022-10-05T14:24:42.368Z,99047.63
2022-10-05T14:27:22.929Z,99056.44
2022-10-05T14:29:59.802Z,99054.72
2022-10-05T14:32:31.774Z,99053.91
2022-10-05T14:35:14.732Z,99044.56
2022-10-05T14:37:50.361Z,99050.47
2022-10-05T14:40:30.571Z,99048.25
2022-10-05T14:43:02.784Z,99045.63
2022-10-05T14:45:31.034Z,99039.53
2022-10-05T14:48:11.517Z,99032.25
2022-10-05T14:50:54.852Z,99035.44
2022-10-05T14:53:24.918Z,99035.34
2022-10-05T14:56:05.191Z,99037.25
2022-10-05T14:58:49.979Z,99034.59
2022-10-05T15:01:27.265Z,99037.09
2022-10-05T15:04:06.872Z,99035.97
2022-10-05T15:06:38.981Z,99029.13
2022-10-05T15:09:24.698Z,99035.50
2022-10-05T15:11:54.518Z,99035.25
2022-10-05T15:14:28.143Z,99021.91
2022-10-05T15:17:01.706Z,99041.47
2022-10-05T15:19:37.968Z,99023.88
2022-10-05T15:22:19.719Z,99028.47
2022-10-05T15:25:01.589Z,99029.63
2022-10-05T15:27:36.400Z,99032.13
2022-10-05T15:30:12.353Z,99032.56
2022-10-05T15:32:55.360Z,99029.75
2022-10-05T15:35:43.004Z,99034.19
2022-10-05T15:38:21.132Z,99036.06
2022-10-05T15:41:10.906Z,99029.31
2022-10-05T15:43:48.322Z,99031.34
2022-10-05T15:46:23.433Z,99035.28
2022-10-05T15:49:01.738Z,99026.72
2022-10-05T15:51:42.472Z,99034.50
2022-10-05T15:54:39.976Z,99037.97
2022-10-05T15:57:17.212Z,99034.94
2022-10-05T15:59:57.468Z,99034.19
2022-10-05T16:02:34.414Z,99040.84
2022-10-05T16:05:13.345Z,99030.88
2022-10-05T16:08:06.703Z,99038.28
2022-10-05T16:10:38.045Z,99042.31
2022-10-05T16:13:19.233Z,99042.50
2022-10-05T16:15:51.094Z,99048.16
2022-10-05T16:18:42.363Z,99042.34
2022-10-05T16:21:22.520Z,99052.91
2022-10-05T16:24:03.721Z,99053.38
2022-10-05T16:26:41.008Z,99045.81
2022-10-05T16:29:16.133Z,99049.50
2022-10-05T16:31:56.326Z,99049.78
2022-10-05T16:34:42.604Z,99057.47
2022-10-05T16:37:18.278Z,99053.09
2022-10-05T16:39:55.958Z,99060.22
2022-10-05T16:42:43.096Z,99063.94
2022-10-05T16:45:28.134Z,99056.28
2022-10-05T16:48:04.231Z,99063.47
2022-10-05T16:50:44.290Z,99068.16
2022-10-05T16:53:18.776Z,99067.53
2022-10-05T16:55:49.767Z,99059.94
2022-10-05T16:58:23.784Z,99067.97
2022-10-05T17:01:11.618Z,99074.97
2022-10-05T17:03:52.992Z,99069.59
2022-10-05T17:06:40.108Z,99073.31
2022-10-05T17:09:37.985Z,99079.50
2022-10-05T17:12:26.754Z,99085.84
2022-10-05T17:15:10.169Z,99078.69
2022-10-05T17:18:07.661Z,99079.81
2022-10-05T17:20:47.940Z,99089.47
2022-10-05T17:23:37.828Z,99087.84
2022-10-05T17:26:33.293Z,99092.78
2022-10-05T17:29:10.444Z,99103.16
2022-10-05T17:32:16.810Z,99101.78
2022-10-05T17:35:18.429Z,99101.94
2022-10-05T17:38:09.203Z,99099.81
2022-10-05T17:40:39.898Z,99110.91
2022-10-05T17:43:24.966Z,99111.53
2022-10-05T17:46:00.565Z,99112.94
2022-10-05T17:49:06.629Z,99114.91
2022-10-05T17:52:23.397Z,99115.25
2022-10-05T17:55:20.439Z,99124.22
2022-10-05T17:57:49.561Z,99134.34
2022-10-05T18:00:41.967Z,99137.97
2022-10-05T18:03:37.238Z,99142.75
2022-10-05T18:06:35.355Z,99143.94
2022-10-05T18:09:33.145Z,99145.09
2022-10-05T18:12:39.565Z,99149.13
2022-10-05T18:15:46.537Z,99151.91
2022-10-05T18:18:59.156Z,99159.06
2022-10-05T18:21:38.436Z,99158.66
2022-10-05T18:24:44.721Z,99158.28
2022-10-05T18:27:36.151Z,99171.81
2022-10-05T18:30:14.465Z,99174.63
2022-10-05T18:33:20.044Z,99180.97
2022-10-05T18:36:00.229Z,99177.81
2022-10-05T18:38:41.389Z,99181.00
2022-10-05T18:41:19.736Z,99181.38
2022-10-05T18:43:57.472Z,99179.03
2022-10-05T18:46:39.895Z,99189.78
2022-10-05T18:49:26.455Z,99189.78
2022-10-05T18:52:05.862Z,99192.19
2022-10-05T18:54:48.414Z,99190.59
2022-10-05T18:57:48.616Z,99196.56
2022-10-05T19:00:19.193Z,99194.56
2022-10-05T19:02:51.462Z,99204.88
2022-10-05T19:05:48.710Z,99210.06
2022-10-05T19:08:28.792Z,99211.25
2022-10-05T19:11:05.645Z,99218.03
2022-10-05T19:13:42.426Z,99223.88
2022-10-05T19:16:25.240Z,99231.72
2022-10-05T19:19:10.633Z,99235.69
2022-10-05T19:21:47.070Z,99239.19
2022-10-05T19:24:40.595Z,99240.81
2022-10-05T19:27:17.558Z,99244.84
2022-10-05T19:30:17.943Z,99240.50
2022-10-05T19:33:07.111Z,99247.78
2022-10-05T19:35:44.848Z,99253.00
2022-10-05T19:38:22.612Z,99252.63
2022-10-05T19:40:57.775Z,99266.97
2022-10-05T19:43:39.549Z,99272.59
2022-10-05T19:46:19.095Z,99269.78
2022-10-05T19:48:50.653Z,99271.78
2022-10-05T19:51:29.550Z,99282.75
2022-10-05T19:54:00.933Z,99280.09
2022-10-05T19:56:32.372Z,99290.91
2022-10-05T19:59:13.052Z,99283.34
2022-10-05T20:01:42.009Z,99286.94
2022-10-05T20:04:10.949Z,99290.53
2022-10-05T20:06:39.558Z,99295.69
2022-10-05T20:09:21.030Z,99293.72
2022-10-05T20:11:52.725Z,99302.06
2022-10-05T20:14:32.748Z,99304.47
2022-10-05T20:17:50.006Z,99310.44
2022-10-05T20:20:31.216Z,99316.81
2022-10-05T20:23:23.455Z,99329.16
2022-10-05T20:26:05.671Z,99332.19
2022-10-05T20:28:33.891Z,99333.28
2022-10-05T20:31:03.000Z,99333.56
2022-10-05T20:33:30.951Z,99334.19
2022-10-05T20:35:58.964Z,99341.88
2022-10-05T20:38:27.108Z,99339.16
2022-10-05T20:40:55.109Z,99335.16
2022-10-05T20:43:22.793Z,99346.38
2022-10-05T20:45:52.357Z,99349.03
2022-10-05T20:48:21.364Z,99356.31
2022-10-05T20:50:49.040Z,99358.75
2022-10-05T20:53:16.690Z,99363.50
2022-10-05T20:55:44.377Z,99362.72
2022-10-05T20:58:12.195Z,99363.88
2022-10-05T21:01:02.996Z,99365.63
2022-10-05T21:03:32.105Z,99363.31
2022-10-05T21:05:59.827Z,99372.69
2022-10-05T21:08:27.806Z,99382.44
2022-10-05T21:10:55.910Z,99382.25
2022-10-05T21:13:25.392Z,99383.22
2022-10-05T21:15:53.679Z,99397.63
2022-10-05T21:18:21.374Z,99390.22
2022-10-05T21:20:50.516Z,99393.22
2022-10-05T21:23:18.240Z,99395.22
2022-10-05T21:25:45.961Z,99400.97
2022-10-05T21:28:13.786Z,99393.13
2022-10-05T21:30:41.464Z,99395.50
2022-10-05T21:33:09.136Z,99404.13
2022-10-05T21:35:36.753Z,99404.31
2022-10-05T21:38:05.788Z,99406.09
2022-10-05T21:40:33.466Z,99399.94
2022-10-05T21:43:01.155Z,99402.66
2022-10-05T21:45:29.749Z,99406.34
2022-10-05T21:47:58.476Z,99410.19
2022-10-05T21:50:26.828Z,99419.38
2022-10-05T21:52:55.214Z,99418.63
2022-10-05T21:55:24.311Z,99414.44
2022-10-05T21:57:52.277Z,99421.22
2022-10-05T22:00:20.530Z,99414.13
2022-10-05T22:02:48.221Z,99422.38
2022-10-05T22:05:16.717Z,99422.50
2022-10-05T22:07:44.636Z,99424.28
2022-10-05T22:10:12.314Z,99420.28
2022-10-05T22:12:41.471Z,99427.25
2022-10-05T22:15:10.439Z,99424.34
2022-10-05T22:17:38.845Z,99431.63
2022-10-05T22:20:07.591Z,99430.44
2022-10-05T22:22:37.975Z,99427.94
2022-10-05T22:25:06.672Z,99430.91
2022-10-05T22:27:35.213Z,99440.38
2022-10-05T22:30:05.709Z,99432.19
2022-10-05T22:32:33.401Z,99433.16
2022-10-05T22:35:01.145Z,99430.44
2022-10-05T22:37:28.861Z,99439.56
2022-10-05T22:39:56.597Z,99438.09
2022-10-05T22:42:24.319Z,99441.22
2022-10-05T22:44:52.001Z,99433.22
2022-10-05T22:47:21.014Z,99446.78
2022-10-05T22:49:48.696Z,99449.81
2022-10-05T22:52:16.468Z,99450.31
2022-10-05T22:54:44.103Z,99456.69
2022-10-05T22:57:11.821Z,99448.13
2022-10-05T22:59:39.457Z,99445.38
2022-10-05T23:02:07.154Z,99440.50
2022-10-05T23:04:36.238Z,99452.44
2022-10-05T23:07:04.418Z,99460.31
2022-10-05T23:09:32.101Z,99461.31
2022-10-05T23:11:59.771Z,99471.00
2022-10-05T23:14:29.239Z,99468.91
2022-10-05T23:16:56.980Z,99468.06
2022-10-05T23:19:24.789Z,99479.19
2022-10-05T23:21:55.455Z,99480.34
2022-10-05T23:24:23.132Z,99479.97
2022-10-05T23:26:50.820Z,99476.34
2022-10-05T23:29:18.531Z,99480.44
2022-10-05T23:31:46.191Z,99479.63
2022-10-05T23:34:13.875Z,99478.22
2022-10-05T23:36:41.518Z,99482.69
2022-10-05T23:39:10.544Z,99481.97
2022-10-05T23:41:38.219Z,99486.00
2022-10-05T23:44:05.933Z,99471.09
2022-10-05T23:46:33.607Z,99474.19
2022-10-05T23:49:01.300Z,99478.94
2022-10-05T23:51:28.947Z,99488.25
2022-10-05T23:53:56.602Z,99496.25
2022-10-05T23:56:25.772Z,99490.78
2022-10-05T23:58:56.644Z,99494.78
